sensor_id;sensor_type;location;lat;lon;timestamp;P1;durP1;ratioP1;P2;durP2;ratioP2
73508;SDS011;61750;55.036;73.312;2022-09-13T05:13:04;11.20;;;3.67;;
73508;SDS011;61750;55.036;73.312;2022-09-13T05:15:40;11.57;;;3.50;;
73508;SDS011;61750;55.036;73.312;2022-09-13T05:18:16;11.50;;;3.33;;
73508;SDS011;61750;55.036;73.312;2022-09-13T05:23:23;10.65;;;3.60;;
73508;SDS011;61750;55.036;73.312;2022-09-13T05:28:23;10.95;;;3.63;;
73508;SDS011;61750;55.036;73.312;2022-09-13T05:30:59;13.50;;;2.80;;
73508;SDS011;61750;55.036;73.312;2022-09-13T05:33:33;14.07;;;3.03;;
73508;SDS011;61750;55.036;73.312;2022-09-13T05:36:00;15.30;;;2.70;;
73508;SDS011;61750;55.036;73.312;2022-09-13T05:38:37;11.02;;;3.35;;
73508;SDS011;61750;55.036;73.312;2022-09-13T05:41:13;11.85;;;3.63;;
73508;SDS011;61750;55.036;73.312;2022-09-13T05:43:39;13.90;;;3.90;;
73508;SDS011;61750;55.036;73.312;2022-09-13T05:46:16;11.82;;;2.80;;
73508;SDS011;61750;55.036;73.312;2022-09-13T05:48:44;7.97;;;2.70;;
73508;SDS011;61750;55.036;73.312;2022-09-13T05:51:12;9.00;;;2.90;;
73508;SDS011;61750;55.036;73.312;2022-09-13T05:53:46;7.93;;;2.78;;
73508;SDS011;61750;55.036;73.312;2022-09-13T05:56:16;9.38;;;3.08;;
73508;SDS011;61750;55.036;73.312;2022-09-13T05:58:51;8.98;;;2.30;;
73508;SDS011;61750;55.036;73.312;2022-09-13T06:01:19;11.38;;;2.70;;
73508;SDS011;61750;55.036;73.312;2022-09-13T06:03:50;10.88;;;3.28;;
73508;SDS011;61750;55.036;73.312;2022-09-13T06:06:18;6.95;;;2.60;;
73508;SDS011;61750;55.036;73.312;2022-09-13T06:08:45;6.07;;;2.40;;
73508;SDS011;61750;55.036;73.312;2022-09-13T06:11:12;8.27;;;2.22;;
73508;SDS011;61750;55.036;73.312;2022-09-13T06:13:40;6.93;;;2.33;;
73508;SDS011;61750;55.036;73.312;2022-09-13T06:16:10;4.05;;;1.60;;
73508;SDS011;61750;55.036;73.312;2022-09-13T06:18:38;8.43;;;2.22;;
73508;SDS011;61750;55.036;73.312;2022-09-13T06:21:06;3.20;;;1.35;;
73508;SDS011;61750;55.036;73.312;2022-09-13T06:23:47;2.88;;;1.58;;
73508;SDS011;61750;55.036;73.312;2022-09-13T06:45:12;7.90;;;2.17;;
73508;SDS011;61750;55.036;73.312;2022-09-13T06:47:39;7.13;;;2.40;;
73508;SDS011;61750;55.036;73.312;2022-09-13T06:50:05;6.00;;;2.30;;
73508;SDS011;61750;55.036;73.312;2022-09-13T06:52:41;7.07;;;2.26;;
73508;SDS011;61750;55.036;73.312;2022-09-13T06:55:07;6.68;;;1.67;;
73508;SDS011;61750;55.036;73.312;2022-09-13T06:58:08;10.74;;;1.90;;
73508;SDS011;61750;55.036;73.312;2022-09-13T07:00:39;6.57;;;2.00;;
73508;SDS011;61750;55.036;73.312;2022-09-13T07:05:34;5.43;;;2.00;;
73508;SDS011;61750;55.036;73.312;2022-09-13T07:10:34;5.63;;;2.00;;
73508;SDS011;61750;55.036;73.312;2022-09-13T07:15:35;5.75;;;2.00;;
73508;SDS011;61750;55.036;73.312;2022-09-13T07:20:35;6.57;;;1.95;;
73508;SDS011;61750;55.036;73.312;2022-09-13T07:23:06;4.13;;;2.17;;
73508;SDS011;61750;55.036;73.312;2022-09-13T07:25:32;10.05;;;2.45;;
73508;SDS011;61750;55.036;73.312;2022-09-13T07:30:34;6.22;;;2.00;;
73508;SDS011;61750;55.036;73.312;2022-09-13T07:35:34;6.65;;;1.65;;
73508;SDS011;61750;55.036;73.312;2022-09-13T07:40:39;6.38;;;1.70;;
73508;SDS011;61750;55.036;73.312;2022-09-13T07:43:15;6.80;;;1.88;;
73508;SDS011;61750;55.036;73.312;2022-09-13T07:45:42;8.10;;;4.47;;
73508;SDS011;61750;55.036;73.312;2022-09-13T07:50:38;3.67;;;1.75;;
73508;SDS011;61750;55.036;73.312;2022-09-13T07:53:05;4.05;;;1.52;;
73508;SDS011;61750;55.036;73.312;2022-09-13T07:55:31;6.60;;;1.60;;
73508;SDS011;61750;55.036;73.312;2022-09-13T08:00:39;8.38;;;1.92;;
73508;SDS011;61750;55.036;73.312;2022-09-13T08:05:38;7.68;;;1.70;;
73508;SDS011;61750;55.036;73.312;2022-09-13T08:08:10;2.45;;;1.10;;
73508;SDS011;61750;55.036;73.312;2022-09-13T08:10:36;5.47;;;1.60;;
73508;SDS011;61750;55.036;73.312;2022-09-13T08:15:38;5.30;;;1.60;;
73508;SDS011;61750;55.036;73.312;2022-09-13T08:18:15;3.10;;;1.23;;
73508;SDS011;61750;55.036;73.312;2022-09-13T08:20:42;8.07;;;1.65;;
73508;SDS011;61750;55.036;73.312;2022-09-13T08:23:13;3.67;;;1.42;;
73508;SDS011;61750;55.036;73.312;2022-09-13T08:28:25;4.33;;;1.43;;
73508;SDS011;61750;55.036;73.312;2022-09-13T08:30:51;4.75;;;1.50;;
73508;SDS011;61750;55.036;73.312;2022-09-13T08:33:22;6.50;;;1.65;;
73508;SDS011;61750;55.036;73.312;2022-09-13T08:35:58;4.45;;;1.95;;
73508;SDS011;61750;55.036;73.312;2022-09-13T08:38:34;7.10;;;1.60;;
73508;SDS011;61750;55.036;73.312;2022-09-13T08:43:58;5.30;;;1.60;;
73508;SDS011;61750;55.036;73.312;2022-09-13T08:46:46;4.47;;;1.75;;
73508;SDS011;61750;55.036;73.312;2022-09-13T08:54:40;4.47;;;1.42;;
73508;SDS011;61750;55.036;73.312;2022-09-13T08:57:18;4.65;;;2.00;;
73508;SDS011;61750;55.036;73.312;2022-09-13T08:59:58;8.52;;;2.00;;
73508;SDS011;61750;55.036;73.312;2022-09-13T09:05:55;3.92;;;1.58;;
73508;SDS011;61750;55.036;73.312;2022-09-13T09:08:30;4.07;;;1.63;;
73508;SDS011;61750;55.036;73.312;2022-09-13T09:11:06;4.05;;;1.60;;
73508;SDS011;61750;55.036;73.312;2022-09-13T09:13:42;4.27;;;1.70;;
73508;SDS011;61750;55.036;73.312;2022-09-13T09:16:25;4.50;;;1.40;;
73508;SDS011;61750;55.036;73.312;2022-09-13T09:19:42;3.85;;;1.58;;
73508;SDS011;61750;55.036;73.312;2022-09-13T09:22:19;4.20;;;1.52;;
73508;SDS011;61750;55.036;73.312;2022-09-13T09:24:49;4.13;;;1.50;;
73508;SDS011;61750;55.036;73.312;2022-09-13T09:27:24;6.50;;;1.67;;
73508;SDS011;61750;55.036;73.312;2022-09-13T09:29:53;8.43;;;1.63;;
73508;SDS011;61750;55.036;73.312;2022-09-13T09:41:08;4.70;;;1.83;;
73508;SDS011;61750;55.036;73.312;2022-09-13T09:43:42;7.55;;;2.33;;
73508;SDS011;61750;55.036;73.312;2022-09-13T09:46:20;9.80;;;4.10;;
73508;SDS011;61750;55.036;73.312;2022-09-13T09:48:51;10.98;;;3.90;;
73508;SDS011;61750;55.036;73.312;2022-09-13T09:51:22;9.27;;;4.20;;
73508;SDS011;61750;55.036;73.312;2022-09-13T09:53:52;13.82;;;3.60;;
73508;SDS011;61750;55.036;73.312;2022-09-13T09:56:30;11.63;;;3.85;;
73508;SDS011;61750;55.036;73.312;2022-09-13T09:58:58;10.13;;;3.90;;
73508;SDS011;61750;55.036;73.312;2022-09-13T10:01:26;9.18;;;3.80;;
73508;SDS011;61750;55.036;73.312;2022-09-13T10:06:46;12.45;;;4.20;;
73508;SDS011;61750;55.036;73.312;2022-09-13T10:09:20;10.55;;;3.60;;
73508;SDS011;61750;55.036;73.312;2022-09-13T10:11:48;13.38;;;4.00;;
73508;SDS011;61750;55.036;73.312;2022-09-13T10:19:58;11.32;;;3.70;;
73508;SDS011;61750;55.036;73.312;2022-09-13T10:22:27;13.27;;;3.53;;
73508;SDS011;61750;55.036;73.312;2022-09-13T10:25:21;9.13;;;4.00;;
73508;SDS011;61750;55.036;73.312;2022-09-13T10:31:05;15.18;;;5.03;;
73508;SDS011;61750;55.036;73.312;2022-09-13T10:36:30;19.65;;;6.65;;
73508;SDS011;61750;55.036;73.312;2022-09-13T10:41:27;17.88;;;6.80;;
73508;SDS011;61750;55.036;73.312;2022-09-13T10:44:05;15.70;;;6.88;;
73508;SDS011;61750;55.036;73.312;2022-09-13T10:46:47;20.10;;;6.90;;
73508;SDS011;61750;55.036;73.312;2022-09-13T11:13:28;8.20;;;2.55;;
73508;SDS011;61750;55.036;73.312;2022-09-13T11:25:12;6.32;;;2.20;;
73508;SDS011;61750;55.036;73.312;2022-09-13T11:45:17;6.45;;;1.70;;
73508;SDS011;61750;55.036;73.312;2022-09-13T11:53:38;6.70;;;2.17;;
73508;SDS011;61750;55.036;73.312;2022-09-13T11:59:09;9.05;;;2.00;;
73508;SDS011;61750;55.036;73.312;2022-09-13T12:01:50;8.18;;;1.90;;
73508;SDS011;61750;55.036;73.312;2022-09-13T12:04:26;4.65;;;1.98;;
73508;SDS011;61750;55.036;73.312;2022-09-13T12:07:00;9.18;;;2.95;;
73508;SDS011;61750;55.036;73.312;2022-09-13T12:09:32;5.70;;;2.10;;
73508;SDS011;61750;55.036;73.312;2022-09-13T12:12:09;7.00;;;2.20;;
73508;SDS011;61750;55.036;73.312;2022-09-13T12:14:49;5.22;;;2.55;;
73508;SDS011;61750;55.036;73.312;2022-09-13T12:19:54;7.22;;;2.13;;
73508;SDS011;61750;55.036;73.312;2022-09-13T12:22:23;6.93;;;2.30;;
73508;SDS011;61750;55.036;73.312;2022-09-13T12:24:58;8.30;;;2.40;;
73508;SDS011;61750;55.036;73.312;2022-09-13T12:30:13;8.55;;;2.50;;
73508;SDS011;61750;55.036;73.312;2022-09-13T12:33:08;6.55;;;2.17;;
73508;SDS011;61750;55.036;73.312;2022-09-13T12:38:22;2.00;;;1.30;;
73508;SDS011;61750;55.036;73.312;2022-09-13T12:41:11;9.68;;;3.45;;
73508;SDS011;61750;55.036;73.312;2022-09-13T12:44:19;9.32;;;3.40;;
73508;SDS011;61750;55.036;73.312;2022-09-13T12:50:02;11.93;;;3.85;;
73508;SDS011;61750;55.036;73.312;2022-09-13T13:06:34;14.13;;;5.30;;
73508;SDS011;61750;55.036;73.312;2022-09-13T13:12:00;21.55;;;6.35;;
73508;SDS011;61750;55.036;73.312;2022-09-13T13:36:29;42.20;;;19.45;;
73508;SDS011;61750;55.036;73.312;2022-09-13T13:42:00;52.80;;;23.63;;
73508;SDS011;61750;55.036;73.312;2022-09-13T13:59:56;56.25;;;23.30;;
73508;SDS011;61750;55.036;73.312;2022-09-13T14:06:10;63.70;;;26.00;;
73508;SDS011;61750;55.036;73.312;2022-09-13T14:08:53;68.50;;;28.27;;
73508;SDS011;61750;55.036;73.312;2022-09-13T14:11:52;73.73;;;32.07;;
73508;SDS011;61750;55.036;73.312;2022-09-13T14:17:45;58.53;;;25.83;;
73508;SDS011;61750;55.036;73.312;2022-09-13T14:20:27;58.97;;;27.33;;
73508;SDS011;61750;55.036;73.312;2022-09-13T14:25:58;73.07;;;30.20;;
73508;SDS011;61750;55.036;73.312;2022-09-13T14:28:30;73.70;;;29.20;;
73508;SDS011;61750;55.036;73.312;2022-09-13T14:30:57;61.22;;;28.65;;
73508;SDS011;61750;55.036;73.312;2022-09-13T14:33:26;62.03;;;27.17;;
73508;SDS011;61750;55.036;73.312;2022-09-13T14:36:16;65.55;;;29.23;;
73508;SDS011;61750;55.036;73.312;2022-09-13T14:38:50;72.07;;;28.40;;
73508;SDS011;61750;55.036;73.312;2022-09-13T14:41:22;63.92;;;26.92;;
73508;SDS011;61750;55.036;73.312;2022-09-13T14:44:12;66.50;;;25.80;;
73508;SDS011;61750;55.036;73.312;2022-09-13T14:46:41;59.28;;;28.15;;
73508;SDS011;61750;55.036;73.312;2022-09-13T14:49:12;63.00;;;27.85;;
73508;SDS011;61750;55.036;73.312;2022-09-13T14:51:45;67.30;;;28.00;;
73508;SDS011;61750;55.036;73.312;2022-09-13T14:57:05;58.67;;;29.58;;
73508;SDS011;61750;55.036;73.312;2022-09-13T14:59:43;61.92;;;29.73;;
73508;SDS011;61750;55.036;73.312;2022-09-13T15:02:28;62.20;;;25.85;;
73508;SDS011;61750;55.036;73.312;2022-09-13T15:04:57;55.53;;;27.77;;
73508;SDS011;61750;55.036;73.312;2022-09-13T15:07:29;59.65;;;29.55;;
73508;SDS011;61750;55.036;73.312;2022-09-13T15:13:08;52.60;;;25.80;;
73508;SDS011;61750;55.036;73.312;2022-09-13T15:15:44;79.60;;;39.00;;
73508;SDS011;61750;55.036;73.312;2022-09-13T15:20:47;67.07;;;37.13;;
73508;SDS011;61750;55.036;73.312;2022-09-13T15:26:17;54.85;;;29.25;;
73508;SDS011;61750;55.036;73.312;2022-09-13T15:28:49;57.47;;;29.73;;
73508;SDS011;61750;55.036;73.312;2022-09-13T15:31:27;55.53;;;23.42;;
73508;SDS011;61750;55.036;73.312;2022-09-13T15:36:45;50.85;;;23.85;;
73508;SDS011;61750;55.036;73.312;2022-09-13T15:39:18;43.45;;;22.63;;
73508;SDS011;61750;55.036;73.312;2022-09-13T15:41:53;47.22;;;22.50;;
73508;SDS011;61750;55.036;73.312;2022-09-13T15:44:21;44.28;;;23.15;;
73508;SDS011;61750;55.036;73.312;2022-09-13T15:49:19;47.20;;;22.45;;
73508;SDS011;61750;55.036;73.312;2022-09-13T15:51:52;41.63;;;21.73;;
73508;SDS011;61750;55.036;73.312;2022-09-13T15:54:20;45.47;;;20.85;;
73508;SDS011;61750;55.036;73.312;2022-09-13T15:56:47;43.90;;;21.08;;
73508;SDS011;61750;55.036;73.312;2022-09-13T15:59:27;41.97;;;20.77;;
73508;SDS011;61750;55.036;73.312;2022-09-13T16:02:13;42.67;;;21.50;;
73508;SDS011;61750;55.036;73.312;2022-09-13T16:04:48;40.97;;;20.45;;
73508;SDS011;61750;55.036;73.312;2022-09-13T16:07:20;45.60;;;22.08;;
73508;SDS011;61750;55.036;73.312;2022-09-13T16:09:48;47.45;;;21.38;;
73508;SDS011;61750;55.036;73.312;2022-09-13T16:14:51;43.17;;;20.87;;
73508;SDS011;61750;55.036;73.312;2022-09-13T16:17:22;45.35;;;21.85;;
73508;SDS011;61750;55.036;73.312;2022-09-13T16:19:55;40.22;;;20.88;;
73508;SDS011;61750;55.036;73.312;2022-09-13T16:22:27;40.42;;;19.35;;
73508;SDS011;61750;55.036;73.312;2022-09-13T16:24:53;36.88;;;18.90;;
73508;SDS011;61750;55.036;73.312;2022-09-13T16:27:19;43.92;;;19.92;;
73508;SDS011;61750;55.036;73.312;2022-09-13T16:29:51;38.63;;;19.08;;
73508;SDS011;61750;55.036;73.312;2022-09-13T16:32:23;31.83;;;18.63;;
73508;SDS011;61750;55.036;73.312;2022-09-13T16:34:54;34.87;;;18.53;;
73508;SDS011;61750;55.036;73.312;2022-09-13T16:37:20;42.97;;;18.67;;
73508;SDS011;61750;55.036;73.312;2022-09-13T16:39:46;45.20;;;19.75;;
73508;SDS011;61750;55.036;73.312;2022-09-13T16:42:13;37.83;;;18.50;;
73508;SDS011;61750;55.036;73.312;2022-09-13T16:44:40;38.03;;;18.38;;
73508;SDS011;61750;55.036;73.312;2022-09-13T16:47:06;36.90;;;18.42;;
73508;SDS011;61750;55.036;73.312;2022-09-13T16:49:33;34.90;;;17.77;;
73508;SDS011;61750;55.036;73.312;2022-09-13T16:51:59;38.95;;;18.75;;
73508;SDS011;61750;55.036;73.312;2022-09-13T16:54:26;34.53;;;17.33;;
73508;SDS011;61750;55.036;73.312;2022-09-13T16:56:55;38.80;;;18.33;;
73508;SDS011;61750;55.036;73.312;2022-09-13T16:59:25;38.03;;;18.15;;
73508;SDS011;61750;55.036;73.312;2022-09-13T17:01:51;34.38;;;18.08;;
73508;SDS011;61750;55.036;73.312;2022-09-13T17:04:17;42.63;;;18.30;;
73508;SDS011;61750;55.036;73.312;2022-09-13T17:06:44;36.10;;;17.17;;
73508;SDS011;61750;55.036;73.312;2022-09-13T17:09:10;37.05;;;17.88;;
73508;SDS011;61750;55.036;73.312;2022-09-13T17:11:37;41.42;;;18.92;;
73508;SDS011;61750;55.036;73.312;2022-09-13T17:14:06;36.78;;;18.25;;
73508;SDS011;61750;55.036;73.312;2022-09-13T17:16:35;36.95;;;17.25;;
73508;SDS011;61750;55.036;73.312;2022-09-13T17:19:06;37.65;;;18.27;;
73508;SDS011;61750;55.036;73.312;2022-09-13T17:21:45;40.55;;;17.77;;
73508;SDS011;61750;55.036;73.312;2022-09-13T17:24:17;35.22;;;17.30;;
73508;SDS011;61750;55.036;73.312;2022-09-13T17:26:43;38.65;;;17.60;;
73508;SDS011;61750;55.036;73.312;2022-09-13T17:29:16;35.75;;;16.70;;
73508;SDS011;61750;55.036;73.312;2022-09-13T17:31:42;33.97;;;15.88;;
73508;SDS011;61750;55.036;73.312;2022-09-13T17:34:13;37.50;;;17.08;;
73508;SDS011;61750;55.036;73.312;2022-09-13T17:36:40;33.70;;;16.67;;
73508;SDS011;61750;55.036;73.312;2022-09-13T17:39:07;29.17;;;15.30;;
73508;SDS011;61750;55.036;73.312;2022-09-13T17:41:33;41.35;;;16.85;;
73508;SDS011;61750;55.036;73.312;2022-09-13T17:44:06;34.00;;;15.02;;
73508;SDS011;61750;55.036;73.312;2022-09-13T17:46:32;29.85;;;15.82;;
73508;SDS011;61750;55.036;73.312;2022-09-13T17:49:00;32.00;;;15.38;;
73508;SDS011;61750;55.036;73.312;2022-09-13T17:51:31;33.42;;;14.65;;
73508;SDS011;61750;55.036;73.312;2022-09-13T17:56:43;34.47;;;15.43;;
73508;SDS011;61750;55.036;73.312;2022-09-13T17:59:15;32.97;;;15.73;;
73508;SDS011;61750;55.036;73.312;2022-09-13T18:01:44;32.70;;;15.35;;
73508;SDS011;61750;55.036;73.312;2022-09-13T18:04:12;32.03;;;15.48;;
73508;SDS011;61750;55.036;73.312;2022-09-13T18:06:40;32.25;;;14.45;;
73508;SDS011;61750;55.036;73.312;2022-09-13T18:09:09;32.00;;;15.50;;
73508;SDS011;61750;55.036;73.312;2022-09-13T18:11:44;33.92;;;14.10;;
73508;SDS011;61750;55.036;73.312;2022-09-13T18:14:16;37.22;;;15.02;;
73508;SDS011;61750;55.036;73.312;2022-09-13T18:16:43;30.48;;;13.90;;
73508;SDS011;61750;55.036;73.312;2022-09-13T18:19:14;34.83;;;14.98;;
73508;SDS011;61750;55.036;73.312;2022-09-13T18:21:51;34.05;;;14.95;;
73508;SDS011;61750;55.036;73.312;2022-09-13T18:24:17;30.50;;;14.68;;
73508;SDS011;61750;55.036;73.312;2022-09-13T18:26:45;48.40;;;17.08;;
73508;SDS011;61750;55.036;73.312;2022-09-13T18:29:12;36.75;;;15.48;;
73508;SDS011;61750;55.036;73.312;2022-09-13T18:31:39;32.85;;;14.48;;
73508;SDS011;61750;55.036;73.312;2022-09-13T18:34:08;30.08;;;13.45;;
73508;SDS011;61750;55.036;73.312;2022-09-13T18:36:36;29.00;;;13.80;;
73508;SDS011;61750;55.036;73.312;2022-09-13T18:39:15;31.80;;;14.63;;
73508;SDS011;61750;55.036;73.312;2022-09-13T18:41:45;32.78;;;14.50;;
73508;SDS011;61750;55.036;73.312;2022-09-13T18:44:16;27.15;;;13.48;;
73508;SDS011;61750;55.036;73.312;2022-09-13T18:46:52;28.23;;;14.23;;
73508;SDS011;61750;55.036;73.312;2022-09-13T18:49:19;33.55;;;14.52;;
73508;SDS011;61750;55.036;73.312;2022-09-13T18:51:51;30.33;;;13.55;;
73508;SDS011;61750;55.036;73.312;2022-09-13T18:54:18;28.63;;;13.93;;
73508;SDS011;61750;55.036;73.312;2022-09-13T18:56:49;23.77;;;12.40;;
73508;SDS011;61750;55.036;73.312;2022-09-13T18:59:25;31.97;;;14.33;;
73508;SDS011;61750;55.036;73.312;2022-09-13T19:01:52;26.70;;;13.68;;
73508;SDS011;61750;55.036;73.312;2022-09-13T19:04:19;29.73;;;14.25;;
73508;SDS011;61750;55.036;73.312;2022-09-13T19:06:49;30.00;;;13.95;;
73508;SDS011;61750;55.036;73.312;2022-09-13T19:09:17;34.88;;;13.75;;
73508;SDS011;61750;55.036;73.312;2022-09-13T19:11:46;27.80;;;12.82;;
73508;SDS011;61750;55.036;73.312;2022-09-13T19:14:21;34.45;;;13.30;;
73508;SDS011;61750;55.036;73.312;2022-09-13T19:16:54;34.70;;;14.77;;
73508;SDS011;61750;55.036;73.312;2022-09-13T19:19:22;30.90;;;13.80;;
73508;SDS011;61750;55.036;73.312;2022-09-13T19:21:49;36.67;;;13.57;;
73508;SDS011;61750;55.036;73.312;2022-09-13T19:24:15;28.42;;;12.80;;
73508;SDS011;61750;55.036;73.312;2022-09-13T19:26:42;32.03;;;13.45;;
73508;SDS011;61750;55.036;73.312;2022-09-13T19:29:16;30.75;;;13.43;;
73508;SDS011;61750;55.036;73.312;2022-09-13T19:31:46;25.08;;;12.27;;
73508;SDS011;61750;55.036;73.312;2022-09-13T19:34:23;37.60;;;13.85;;
73508;SDS011;61750;55.036;73.312;2022-09-13T19:36:50;23.05;;;11.57;;
73508;SDS011;61750;55.036;73.312;2022-09-13T19:39:21;24.45;;;11.73;;
73508;SDS011;61750;55.036;73.312;2022-09-13T19:44:18;24.67;;;12.10;;
73508;SDS011;61750;55.036;73.312;2022-09-13T19:46:44;27.58;;;12.35;;
73508;SDS011;61750;55.036;73.312;2022-09-13T19:49:16;23.52;;;11.43;;
73508;SDS011;61750;55.036;73.312;2022-09-13T19:51:47;23.85;;;11.80;;
73508;SDS011;61750;55.036;73.312;2022-09-13T19:54:14;29.58;;;12.27;;
73508;SDS011;61750;55.036;73.312;2022-09-13T19:56:47;31.08;;;12.32;;
73508;SDS011;61750;55.036;73.312;2022-09-13T19:59:15;25.75;;;11.70;;
73508;SDS011;61750;55.036;73.312;2022-09-13T20:01:48;29.77;;;12.10;;
73508;SDS011;61750;55.036;73.312;2022-09-13T20:04:19;29.98;;;12.15;;
73508;SDS011;61750;55.036;73.312;2022-09-13T20:06:47;29.48;;;12.25;;
73508;SDS011;61750;55.036;73.312;2022-09-13T20:09:15;32.28;;;12.65;;
73508;SDS011;61750;55.036;73.312;2022-09-13T20:11:43;23.65;;;10.77;;
73508;SDS011;61750;55.036;73.312;2022-09-13T20:14:16;26.55;;;10.45;;
73508;SDS011;61750;55.036;73.312;2022-09-13T20:16:43;24.95;;;10.40;;
73508;SDS011;61750;55.036;73.312;2022-09-13T20:19:14;23.30;;;10.60;;
73508;SDS011;61750;55.036;73.312;2022-09-13T20:21:45;20.98;;;10.60;;
73508;SDS011;61750;55.036;73.312;2022-09-13T20:24:15;21.33;;;10.00;;
73508;SDS011;61750;55.036;73.312;2022-09-13T20:26:41;25.55;;;10.90;;
73508;SDS011;61750;55.036;73.312;2022-09-13T20:29:08;29.27;;;12.27;;
73508;SDS011;61750;55.036;73.312;2022-09-13T20:31:35;27.08;;;11.73;;
73508;SDS011;61750;55.036;73.312;2022-09-13T20:34:07;28.85;;;12.10;;
73508;SDS011;61750;55.036;73.312;2022-09-13T20:36:37;24.30;;;10.93;;
73508;SDS011;61750;55.036;73.312;2022-09-13T20:41:41;23.05;;;9.70;;
73508;SDS011;61750;55.036;73.312;2022-09-13T20:44:08;23.15;;;10.23;;
73508;SDS011;61750;55.036;73.312;2022-09-13T20:49:12;17.07;;;8.83;;
73508;SDS011;61750;55.036;73.312;2022-09-13T20:51:38;17.33;;;8.50;;
73508;SDS011;61750;55.036;73.312;2022-09-13T20:54:04;17.08;;;8.50;;
73508;SDS011;61750;55.036;73.312;2022-09-13T20:58:58;19.77;;;8.63;;
73508;SDS011;61750;55.036;73.312;2022-09-13T21:01:31;19.20;;;9.18;;
73508;SDS011;61750;55.036;73.312;2022-09-13T21:04:03;19.02;;;8.35;;
73508;SDS011;61750;55.036;73.312;2022-09-13T21:06:39;20.50;;;9.38;;
73508;SDS011;61750;55.036;73.312;2022-09-13T21:09:30;16.27;;;8.05;;
73508;SDS011;61750;55.036;73.312;2022-09-13T21:11:57;28.05;;;8.32;;
73508;SDS011;61750;55.036;73.312;2022-09-13T21:14:23;14.82;;;7.22;;
73508;SDS011;61750;55.036;73.312;2022-09-13T21:16:49;18.75;;;7.55;;
73508;SDS011;61750;55.036;73.312;2022-09-13T21:19:20;17.13;;;8.73;;
73508;SDS011;61750;55.036;73.312;2022-09-13T21:21:46;20.10;;;8.50;;
73508;SDS011;61750;55.036;73.312;2022-09-13T21:24:13;17.15;;;8.52;;
73508;SDS011;61750;55.036;73.312;2022-09-13T21:26:39;18.98;;;8.82;;
73508;SDS011;61750;55.036;73.312;2022-09-13T21:29:09;15.93;;;8.15;;
73508;SDS011;61750;55.036;73.312;2022-09-13T21:31:40;17.85;;;7.95;;
73508;SDS011;61750;55.036;73.312;2022-09-13T21:34:12;19.65;;;8.45;;
73508;SDS011;61750;55.036;73.312;2022-09-13T21:36:50;20.05;;;7.97;;
73508;SDS011;61750;55.036;73.312;2022-09-13T21:39:16;18.08;;;8.88;;
73508;SDS011;61750;55.036;73.312;2022-09-13T21:41:46;17.17;;;8.25;;
73508;SDS011;61750;55.036;73.312;2022-09-13T21:44:12;21.23;;;8.82;;
73508;SDS011;61750;55.036;73.312;2022-09-13T21:46:44;20.08;;;8.60;;
73508;SDS011;61750;55.036;73.312;2022-09-13T21:49:11;21.23;;;8.70;;
73508;SDS011;61750;55.036;73.312;2022-09-13T21:54:14;20.10;;;7.68;;
73508;SDS011;61750;55.036;73.312;2022-09-13T21:56:49;18.48;;;7.57;;
73508;SDS011;61750;55.036;73.312;2022-09-13T21:59:18;14.15;;;7.93;;
73508;SDS011;61750;55.036;73.312;2022-09-13T22:01:47;18.50;;;8.00;;
73508;SDS011;61750;55.036;73.312;2022-09-13T22:04:17;15.52;;;7.65;;
73508;SDS011;61750;55.036;73.312;2022-09-13T22:06:45;16.85;;;8.23;;
73508;SDS011;61750;55.036;73.312;2022-09-13T22:09:13;19.80;;;8.25;;
73508;SDS011;61750;55.036;73.312;2022-09-13T22:11:41;18.73;;;8.85;;
73508;SDS011;61750;55.036;73.312;2022-09-13T22:14:15;14.82;;;7.47;;
73508;SDS011;61750;55.036;73.312;2022-09-13T22:16:43;14.75;;;7.50;;
73508;SDS011;61750;55.036;73.312;2022-09-13T22:19:12;13.40;;;7.43;;
73508;SDS011;61750;55.036;73.312;2022-09-13T22:21:45;15.77;;;8.38;;
73508;SDS011;61750;55.036;73.312;2022-09-13T22:24:14;17.92;;;7.28;;
73508;SDS011;61750;55.036;73.312;2022-09-13T22:26:45;14.52;;;6.90;;
73508;SDS011;61750;55.036;73.312;2022-09-13T22:29:18;17.55;;;6.95;;
73508;SDS011;61750;55.036;73.312;2022-09-13T22:31:46;16.77;;;7.90;;
73508;SDS011;61750;55.036;73.312;2022-09-13T22:34:14;39.95;;;13.38;;
73508;SDS011;61750;55.036;73.312;2022-09-13T22:36:42;24.30;;;10.10;;
73508;SDS011;61750;55.036;73.312;2022-09-13T22:39:09;31.23;;;10.05;;
73508;SDS011;61750;55.036;73.312;2022-09-13T22:41:41;25.98;;;9.98;;
73508;SDS011;61750;55.036;73.312;2022-09-13T22:44:08;21.90;;;9.65;;
73508;SDS011;61750;55.036;73.312;2022-09-13T22:46:46;26.25;;;9.68;;
73508;SDS011;61750;55.036;73.312;2022-09-13T22:49:13;20.85;;;9.05;;
73508;SDS011;61750;55.036;73.312;2022-09-13T22:51:41;20.73;;;7.85;;
73508;SDS011;61750;55.036;73.312;2022-09-13T22:54:12;14.70;;;6.88;;
73508;SDS011;61750;55.036;73.312;2022-09-13T22:56:40;17.10;;;7.20;;
73508;SDS011;61750;55.036;73.312;2022-09-13T22:59:13;17.83;;;7.95;;
73508;SDS011;61750;55.036;73.312;2022-09-13T23:01:43;18.85;;;8.65;;
73508;SDS011;61750;55.036;73.312;2022-09-13T23:04:10;18.67;;;8.65;;
73508;SDS011;61750;55.036;73.312;2022-09-13T23:06:37;19.85;;;8.10;;
73508;SDS011;61750;55.036;73.312;2022-09-13T23:11:40;18.97;;;7.93;;
73508;SDS011;61750;55.036;73.312;2022-09-13T23:14:16;19.13;;;8.10;;
73508;SDS011;61750;55.036;73.312;2022-09-13T23:16:45;20.13;;;9.02;;
73508;SDS011;61750;55.036;73.312;2022-09-13T23:19:20;19.02;;;8.80;;
73508;SDS011;61750;55.036;73.312;2022-09-13T23:21:47;18.30;;;7.65;;
73508;SDS011;61750;55.036;73.312;2022-09-13T23:24:20;16.73;;;7.45;;
73508;SDS011;61750;55.036;73.312;2022-09-13T23:26:47;22.17;;;8.77;;
73508;SDS011;61750;55.036;73.312;2022-09-13T23:29:19;17.58;;;7.97;;
73508;SDS011;61750;55.036;73.312;2022-09-13T23:31:53;17.52;;;7.18;;
73508;SDS011;61750;55.036;73.312;2022-09-13T23:34:21;16.27;;;7.03;;
73508;SDS011;61750;55.036;73.312;2022-09-13T23:36:48;13.80;;;5.75;;
73508;SDS011;61750;55.036;73.312;2022-09-13T23:39:15;17.15;;;6.22;;
73508;SDS011;61750;55.036;73.312;2022-09-13T23:41:52;13.57;;;6.07;;
73508;SDS011;61750;55.036;73.312;2022-09-13T23:44:24;13.07;;;5.75;;
73508;SDS011;61750;55.036;73.312;2022-09-13T23:46:51;12.57;;;4.80;;
73508;SDS011;61750;55.036;73.312;2022-09-13T23:49:17;12.13;;;5.05;;
73508;SDS011;61750;55.036;73.312;2022-09-13T23:51:44;10.73;;;5.35;;
73508;SDS011;61750;55.036;73.312;2022-09-13T23:54:16;9.52;;;4.95;;
73508;SDS011;61750;55.036;73.312;2022-09-13T23:56:52;9.15;;;4.97;;
73508;SDS011;61750;55.036;73.312;2022-09-13T23:59:23;12.90;;;6.05;;
